Time;durP1;ratioP1;P1;durP2;ratioP2;P2;SDS_P1;SDS_P2;PMS_P1;PMS_P2;Temp;Humidity;BMP_temperature;BMP_pressure;BME280_temperature;BME280_humidity;BME280_pressure;Samples;Min_cycle;Max_cycle;Signal;HPM_P1;HPM_P2
2022/05/07 00:02:20;;;;;;;18.27;16.57;;;;;;;11.76;100.00;96819.03;5076016;27;101859;-64
2022/05/07 00:04:47;;;;;;;18.57;16.77;;;;;;;11.78;100.00;96820.41;5053400;27;105328;-64
2022/05/07 00:07:14;;;;;;;19.70;17.63;;;;;;;11.76;100.00;96813.72;5072512;27;101877;-64
2022/05/07 00:09:41;;;;;;;18.60;16.80;;;;;;;11.77;100.00;96816.13;5072404;27;102547;-64
2022/05/07 00:12:09;;;;;;;19.33;17.47;;;;;;;11.77;100.00;96820.69;5053201;27;106049;-64
2022/05/07 00:14:36;;;;;;;18.27;16.47;;;;;;;11.76;100.00;96816.38;5072110;27;101840;-64
2022/05/07 00:19:49;;;;;;;19.33;17.33;;;;;;;11.85;100.00;96812.25;5071029;27;103004;-64
2022/05/07 00:22:16;;;;;;;19.60;17.60;;;;;;;11.86;100.00;96816.50;5056723;27;102009;-64
2022/05/07 00:24:44;;;;;;;19.77;17.87;;;;;;;11.86;100.00;96808.50;5053055;27;106456;-64
2022/05/07 00:27:13;;;;;;;18.97;17.17;;;;;;;11.85;100.00;96806.91;5072327;27;101793;-64
2022/05/07 00:29:40;;;;;;;19.90;18.07;;;;;;;11.85;100.00;96802.41;5071781;27;102885;-64
2022/05/07 00:32:09;;;;;;;19.57;17.67;;;;;;;11.84;100.00;96803.44;5053169;27;105117;-64
2022/05/07 00:34:36;;;;;;;19.07;17.27;;;;;;;11.85;100.00;96796.25;5053376;27;101916;-64
2022/05/07 00:37:05;;;;;;;19.20;17.33;;;;;;;11.84;100.00;96799.97;5053143;27;105331;-64
2022/05/07 00:39:32;;;;;;;18.93;16.93;;;;;;;11.81;100.00;96800.47;5052942;27;105466;-64
2022/05/07 00:42:04;;;;;;;17.73;16.13;;;;;;;11.81;100.00;96800.47;5052601;27;101941;-64
2022/05/07 00:44:31;;;;;;;18.83;17.13;;;;;;;11.81;100.00;96795.94;5055907;27;105538;-64
2022/05/07 00:47:08;;;;;;;17.97;16.17;;;;;;;11.81;100.00;96797.78;5071485;27;101862;-64
2022/05/07 00:49:35;;;;;;;20.10;18.00;;;;;;;11.83;100.00;96799.16;5053409;27;105092;-64
2022/05/07 00:52:01;;;;;;;18.47;16.67;;;;;;;11.81;100.00;96787.94;5052563;27;105959;-64
2022/05/07 00:54:30;;;;;;;18.37;16.67;;;;;;;11.82;100.00;96791.44;5053314;27;101896;-64
2022/05/07 00:56:57;;;;;;;17.20;15.57;;;;;;;11.80;100.00;96783.69;5052969;27;105262;-64
2022/05/07 00:59:25;;;;;;;19.60;17.70;;;;;;;11.76;100.00;96784.41;5052629;27;105461;-64
2022/05/07 01:01:52;;;;;;;19.13;17.33;;;;;;;11.73;100.00;96782.25;5053117;27;101942;-64
2022/05/07 01:04:18;;;;;;;19.37;17.57;;;;;;;11.73;100.00;96788.38;5053126;27;105438;-64
2022/05/07 01:06:46;;;;;;;20.90;17.30;;;;;;;11.77;100.00;96786.81;5055633;27;105531;-64
2022/05/07 01:09:13;;;;;;;21.00;19.00;;;;;;;11.76;100.00;96789.72;5071557;27;102279;-64
2022/05/07 01:11:42;;;;;;;20.53;18.53;;;;;;;11.71;100.00;96784.34;5070941;27;102855;-65
2022/05/07 01:14:09;;;;;;;20.47;18.57;;;;;;;11.70;100.00;96772.91;5052883;27;101835;-64
2022/05/07 01:16:36;;;;;;;19.97;17.90;;;;;;;11.66;100.00;96777.09;5052636;27;104124;-64
2022/05/07 01:19:04;;;;;;;18.40;16.70;;;;;;;11.69;100.00;96773.13;5052372;27;105296;-64
2022/05/07 01:21:32;;;;;;;19.57;17.67;;;;;;;11.70;100.00;96769.41;5051971;27;101823;-64
2022/05/07 01:24:00;;;;;;;19.17;17.30;;;;;;;11.60;100.00;96771.94;5052498;27;104990;-64
2022/05/07 01:26:31;;;;;;;18.47;16.77;;;;;;;11.67;100.00;96769.91;5052336;27;105849;-64
2022/05/07 01:29:03;;;;;;;18.83;17.03;;;;;;;11.73;100.00;96763.59;5056287;27;101915;-64
2022/05/07 01:31:34;;;;;;;19.23;17.33;;;;;;;11.68;100.00;96758.22;5070875;27;102695;-64
2022/05/07 01:34:01;;;;;;;17.87;16.17;;;;;;;11.65;100.00;96761.34;5035696;27;101916;-64
2022/05/07 01:36:31;;;;;;;16.90;15.30;;;;;;;11.69;100.00;96755.31;5052524;27;104903;-64
2022/05/07 01:39:03;;;;;;;16.93;15.43;;;;;;;11.74;100.00;96760.69;5052374;27;105432;-64
2022/05/07 01:41:30;;;;;;;18.30;16.60;;;;;;;11.66;100.00;96761.13;5052621;27;101906;-64
2022/05/07 01:43:58;;;;;;;18.10;16.23;;;;;;;11.71;100.00;96761.19;5052362;27;105503;-64
2022/05/07 01:49:14;;;;;;;17.13;15.43;;;;;;;11.76;100.00;96763.91;5052420;27;101884;-64
2022/05/07 01:51:46;;;;;;;16.47;14.97;;;;;;;11.70;100.00;96758.75;5055467;27;104884;-64
2022/05/07 01:54:13;;;;;;;16.60;15.10;;;;;;;11.67;100.00;96760.06;5052019;27;101807;-64
2022/05/07 01:56:40;;;;;;;16.30;14.70;;;;;;;11.60;100.00;96756.78;5052152;27;104918;-64
2022/05/07 01:59:08;;;;;;;15.97;14.47;;;;;;;11.64;100.00;96763.22;5051506;27;105297;-64
2022/05/07 02:01:36;;;;;;;19.10;17.23;;;;;;;11.70;100.00;96756.09;5052132;27;101919;-65
2022/05/07 02:04:03;;;;;;;17.80;16.20;;;;;;;11.66;100.00;96755.00;5051976;27;104164;-64
2022/05/07 02:06:31;;;;;;;18.03;16.33;;;;;;;11.60;100.00;96756.78;5051560;27;105185;-64
2022/05/07 02:09:00;;;;;;;18.03;16.23;;;;;;;11.65;100.00;96753.34;5051989;27;102075;-64
2022/05/07 02:11:30;;;;;;;18.20;16.43;;;;;;;11.62;100.00;96754.66;5051768;27;105565;-64
2022/05/07 02:13:58;;;;;;;18.20;16.40;;;;;;;11.59;100.00;96749.03;5054986;27;105258;-64
2022/05/07 02:16:25;;;;;;;18.20;16.60;;;;;;;11.64;100.00;96749.91;5051775;27;105093;-64
2022/05/07 02:18:52;;;;;;;18.50;16.70;;;;;;;11.64;100.00;96751.75;5051077;27;105057;-64
2022/05/07 02:21:19;;;;;;;19.77;17.77;;;;;;;11.57;100.00;96745.78;5051447;27;102194;-64
2022/05/07 02:23:46;;;;;;;19.63;17.73;;;;;;;11.60;100.00;96745.31;5051962;27;105275;-64
2022/05/07 02:26:15;;;;;;;20.80;18.70;;;;;;;11.62;100.00;96751.22;5051299;27;105415;-64
2022/05/07 02:28:42;;;;;;;24.00;21.60;;;;;;;11.59;100.00;96749.03;5051739;27;101879;-64
2022/05/07 02:31:10;;;;;;;24.50;22.00;;;;;;;11.59;100.00;96744.53;5051722;27;104833;-64
2022/05/07 02:33:37;;;;;;;25.70;23.10;;;;;;;11.52;100.00;96738.53;5054684;27;105706;-64
2022/05/07 02:36:08;;;;;;;26.67;23.63;;;;;;;11.46;100.00;96744.03;5051689;27;105369;-64
2022/05/07 02:38:38;;;;;;;25.80;23.17;;;;;;;11.46;100.00;96746.72;5069556;27;103285;-64
2022/05/07 02:43:52;;;;;;;26.37;23.77;;;;;;;11.53;100.00;96742.00;5051665;27;105266;-64
2022/05/07 02:46:19;;;;;;;25.00;22.50;;;;;;;11.60;100.00;96751.44;5050509;27;105401;-64
2022/05/07 02:48:46;;;;;;;25.70;23.07;;;;;;;11.62;100.00;96743.22;5051518;27;101730;-64
2022/05/07 02:51:15;;;;;;;27.57;24.57;;;;;;;11.57;100.00;96745.78;5051565;27;105411;-64
2022/05/07 02:53:44;;;;;;;26.33;23.47;;;;;;;11.50;100.00;96745.97;5050853;27;105651;-64
2022/05/07 02:56:11;;;;;;;25.60;22.90;;;;;;;11.56;100.00;96742.31;5054894;27;101945;-64
2022/05/07 02:58:38;;;;;;;25.63;23.03;;;;;;;11.57;100.00;96740.47;5069349;27;101780;-65
2022/05/07 03:01:07;;;;;;;24.47;21.87;;;;;;;11.55;100.00;96734.59;5069564;27;101918;-64
2022/05/07 03:03:35;;;;;;;24.60;22.00;;;;;;;11.54;100.00;96735.63;5051289;27;104859;-64
2022/05/07 03:06:05;;;;;;;25.43;22.83;;;;;;;11.49;100.00;96739.03;5051804;27;105023;-65
2022/05/07 03:08:36;;;;;;;25.10;22.57;;;;;;;11.53;100.00;96739.34;5054657;27;102075;-64
2022/05/07 03:11:03;;;;;;;24.93;22.33;;;;;;;11.50;100.00;96737.97;5054818;27;105119;-65
2022/05/07 03:13:31;;;;;;;24.37;21.77;;;;;;;11.44;100.00;96738.97;5054407;27;105350;-64
2022/05/07 03:15:58;;;;;;;24.07;21.07;;;;;;;11.40;100.00;96739.72;5054562;27;102160;-64
2022/05/07 03:18:28;;;;;;;21.40;19.23;;;;;;;11.42;100.00;96732.28;5057474;27;104738;-64
2022/05/07 03:20:56;;;;;;;22.67;20.40;;;;;;;11.49;100.00;96732.88;5050738;27;102066;-64
2022/05/07 03:23:23;;;;;;;22.03;19.83;;;;;;;11.55;100.00;96734.59;5052826;27;102779;-64
2022/05/07 03:25:58;;;;;;;23.40;21.07;;;;;;;11.57;100.00;96735.13;5050781;27;105164;-64
2022/05/07 03:28:25;;;;;;;23.60;21.20;;;;;;;11.53;100.00;96736.66;5051011;27;101940;-64
2022/05/07 03:30:52;;;;;;;23.00;20.73;;;;;;;11.57;100.00;96735.13;5051143;27;105522;-65
2022/05/07 03:33:20;;;;;;;25.00;22.50;;;;;;;11.52;100.00;96735.06;5050537;27;105708;-65
2022/05/07 03:35:49;;;;;;;24.57;21.97;;;;;;;11.49;100.00;96732.88;5051384;27;101994;-64
2022/05/07 03:38:16;;;;;;;24.57;22.03;;;;;;;11.46;100.00;96734.19;5051121;27;105020;-64
2022/05/07 03:41:04;;;;;;;23.30;20.97;;;;;;;11.50;100.00;96739.84;5054864;27;103982;-64
2022/05/07 03:43:36;;;;;;;22.07;19.77;;;;;;;11.50;100.00;96737.19;5050942;27;104823;-64
2022/05/07 03:46:04;;;;;;;23.77;21.33;;;;;;;11.56;100.00;96734.31;5050432;27;105398;-64
2022/05/07 03:48:31;;;;;;;22.33;20.03;;;;;;;11.57;100.00;96727.16;5051098;27;101858;-64
2022/05/07 03:51:00;;;;;;;22.20;20.00;;;;;;;11.60;100.00;96729.31;5051005;27;105580;-64
2022/05/07 03:53:30;;;;;;;23.03;20.63;;;;;;;11.59;100.00;96733.88;5050163;27;103774;-64
2022/05/07 03:56:04;;;;;;;21.83;19.63;;;;;;;11.61;100.00;96733.63;5051085;27;102109;-64
2022/05/07 03:58:34;;;;;;;20.97;18.87;;;;;;;11.58;100.00;96739.41;5050774;27;105181;-64
2022/05/07 04:01:01;;;;;;;23.67;20.30;;;;;;;11.61;100.00;96733.63;5050385;27;105507;-65
2022/05/07 04:03:30;;;;;;;21.87;19.50;;;;;;;11.58;100.00;96732.22;5054178;27;102029;-65
2022/05/07 04:05:59;;;;;;;19.83;17.87;;;;;;;11.59;100.00;96733.03;5050217;27;105394;-65
2022/05/07 04:08:28;;;;;;;19.83;17.83;;;;;;;11.48;100.00;96729.44;5050498;27;101947;-65
2022/05/07 04:10:57;;;;;;;19.37;17.37;;;;;;;11.50;100.00;96734.53;5050958;27;104477;-64
2022/05/07 04:13:27;;;;;;;20.70;18.60;;;;;;;11.46;100.00;96733.41;5049901;27;105409;-65
2022/05/07 04:16:01;;;;;;;19.50;17.60;;;;;;;11.50;100.00;96734.53;5050462;27;101780;-65
2022/05/07 04:18:34;;;;;;;20.03;18.13;;;;;;;11.48;100.00;96734.75;5050180;27;104636;-64
2022/05/07 04:21:05;;;;;;;20.57;18.47;;;;;;;11.45;100.00;96737.13;5049759;27;104853;-65
2022/05/07 04:23:34;;;;;;;21.63;19.33;;;;;;;11.46;100.00;96733.41;5050369;27;101935;-64
2022/05/07 04:26:01;;;;;;;20.40;18.30;;;;;;;11.53;100.00;96734.00;5053401;27;104003;-64
2022/05/07 04:28:32;;;;;;;22.57;20.27;;;;;;;11.58;100.00;96737.56;5050325;27;101862;-64
2022/05/07 04:31:00;;;;;;;23.20;20.77;;;;;;;11.56;100.00;96736.19;5050306;27;103580;-65
2022/05/07 04:33:32;;;;;;;23.17;20.73;;;;;;;11.60;100.00;96735.47;5049530;27;105088;-65
2022/05/07 04:36:05;;;;;;;22.77;20.37;;;;;;;11.63;100.00;96734.16;5050413;27;101841;-65
2022/05/07 04:38:36;;;;;;;23.17;20.67;;;;;;;11.64;100.00;96733.94;5050067;27;105007;-65
2022/05/07 04:41:05;;;;;;;22.93;20.53;;;;;;;11.64;100.00;96735.78;5049665;27;105233;-65
2022/05/07 04:43:33;;;;;;;24.47;21.90;;;;;;;11.63;100.00;96736.84;5050127;27;101883;-64
2022/05/07 04:46:01;;;;;;;25.13;22.40;;;;;;;11.67;100.00;96738.75;5052870;27;104580;-65
2022/05/07 04:48:29;;;;;;;24.27;21.67;;;;;;;11.63;100.00;96742.16;5050052;27;101941;-65
2022/05/07 04:50:58;;;;;;;24.73;21.17;;;;;;;11.66;100.00;96741.69;5049584;27;104987;-65
2022/05/07 04:53:33;;;;;;;25.17;22.50;;;;;;;11.64;100.00;96741.09;5049300;27;105376;-64
2022/05/07 04:56:10;;;;;;;24.63;22.03;;;;;;;11.62;100.00;96737.88;5049920;27;101974;-65
2022/05/07 04:58:44;;;;;;;25.60;22.37;;;;;;;11.66;100.00;96744.34;5049873;27;104876;-65
2022/05/07 05:01:12;;;;;;;24.30;21.70;;;;;;;11.66;100.00;96744.34;5049191;27;105343;-65
2022/05/07 05:03:45;;;;;;;27.03;23.53;;;;;;;11.69;100.00;96744.66;5049934;27;101838;-64
2022/05/07 05:06:21;;;;;;;25.60;23.00;;;;;;;11.71;100.00;96747.03;5034295;27;104829;-64
2022/05/07 05:09:02;;;;;;;25.93;23.17;;;;;;;11.67;100.00;96751.28;5052603;27;105335;-64
2022/05/07 05:11:31;;;;;;;25.67;22.43;;;;;;;11.67;100.00;96745.94;5049541;27;105340;-64
2022/05/07 05:13:59;;;;;;;27.50;23.47;;;;;;;11.69;100.00;96741.16;5049038;27;105827;-64
2022/05/07 05:16:27;;;;;;;26.03;23.17;;;;;;;11.74;100.00;96757.22;5049406;27;101982;-64
2022/05/07 05:19:00;;;;;;;28.00;23.43;;;;;;;11.74;100.00;96750.03;5050585;27;103669;-64
2022/05/07 05:21:27;;;;;;;26.90;24.00;;;;;;;11.71;100.00;96747.84;5059783;27;101839;-65
2022/05/07 05:24:09;;;;;;;26.47;23.27;;;;;;;11.77;100.00;96751.41;5052779;27;101935;-65
2022/05/07 05:26:40;;;;;;;25.93;23.20;;;;;;;11.82;100.00;96756.78;5052437;27;104823;-63
2022/05/07 05:29:13;;;;;;;27.60;24.07;;;;;;;11.79;100.00;96757.28;5051519;27;105324;-64
2022/05/07 05:31:40;;;;;;;26.87;23.97;;;;;;;11.81;100.00;96760.50;5056020;27;101975;-64
2022/05/07 05:34:25;;;;;;;28.23;24.10;;;;;;;11.85;100.00;96761.59;5052099;27;105096;-63
2022/05/07 05:36:54;;;;;;;28.60;24.13;;;;;;;11.90;100.00;96757.16;5052524;27;102047;-64
2022/05/07 05:39:24;;;;;;;27.87;24.53;;;;;;;11.91;100.00;96757.94;5036032;27;104913;-65
2022/05/07 05:41:55;;;;;;;28.23;25.20;;;;;;;11.95;100.00;96759.06;5051794;27;105800;-71
2022/05/07 05:44:24;;;;;;;27.60;24.63;;;;;;;12.01;100.00;96766.06;5052087;27;101930;-71
2022/05/07 05:46:52;;;;;;;26.93;24.03;;;;;;;12.05;100.00;96767.97;5051605;27;105012;-71
2022/05/07 05:49:18;;;;;;;27.00;24.00;;;;;;;12.11;100.00;96768.84;5070529;27;102593;-71
2022/05/07 05:51:47;;;;;;;25.17;22.47;;;;;;;12.17;100.00;96775.84;5052261;27;102071;-76
2022/05/07 05:54:17;;;;;;;25.47;22.87;;;;;;;12.17;100.00;96767.84;5054812;27;105419;-80
2022/05/07 05:56:46;;;;;;;24.20;21.07;;;;;;;12.22;100.00;96770.56;5052514;27;101867;-81
2022/05/07 05:59:15;;;;;;;22.47;20.17;;;;;;;12.31;100.00;96774.41;5052521;27;103946;-79
2022/05/07 06:01:54;;;;;;;22.57;20.20;;;;;;;12.39;100.00;96779.25;5068893;27;105138;-79
2022/05/07 06:04:27;;;;;;;26.70;20.27;;;;;;;12.43;100.00;96777.72;5052166;27;101945;-79
2022/05/07 06:06:58;;;;;;;21.83;19.37;;;;;;;12.53;100.00;96777.81;5052292;27;105178;-79
2022/05/07 06:09:30;;;;;;;23.07;19.80;;;;;;;12.56;100.00;96772.78;5051715;27;104911;-80
2022/05/07 06:11:57;;;;;;;22.30;19.80;;;;;;;12.61;100.00;96770.16;5052076;27;101938;-79
2022/05/07 06:14:27;;;;;;;20.83;18.73;;;;;;;12.74;100.00;96766.22;5051871;27;105235;-80
2022/05/07 06:16:59;;;;;;;20.67;18.50;;;;;;;12.88;100.00;96770.09;5055069;27;105435;-79
2022/05/07 06:19:28;;;;;;;20.43;18.33;;;;;;;13.02;100.00;96768.66;5052058;27;104830;-79
2022/05/07 06:21:55;;;;;;;19.93;17.63;;;;;;;13.06;100.00;96767.88;5051143;27;105601;-79
2022/05/07 06:27:32;;;;;;;19.07;17.27;;;;;;;13.06;100.00;96767.06;5051660;27;105085;-79
2022/05/07 06:30:09;;;;;;;18.57;16.77;;;;;;;13.07;100.00;96769.47;5051278;27;105196;-79
2022/05/07 06:32:45;;;;;;;18.70;16.90;;;;;;;13.00;100.00;96762.75;5051562;27;102096;-79
2022/05/07 06:35:12;;;;;;;17.77;16.07;;;;;;;12.89;100.00;96767.19;5051661;27;105088;-79
2022/05/07 06:37:53;;;;;;;17.90;16.20;;;;;;;12.90;100.00;96775.97;5051120;27;105269;-79
2022/05/07 06:40:23;;;;;;;18.33;16.57;;;;;;;12.91;100.00;96772.28;5053993;27;101829;-79
2022/05/07 06:42:51;;;;;;;18.00;16.10;;;;;;;12.95;100.00;96776.84;5050973;27;105489;-79
2022/05/07 06:45:32;;;;;;;16.87;15.37;;;;;;;12.85;100.00;96773.25;5051553;27;101843;-79
2022/05/07 06:48:00;;;;;;;16.80;15.23;;;;;;;12.85;100.00;96773.25;5051741;27;105036;-79
2022/05/07 06:50:27;;;;;;;17.33;15.73;;;;;;;12.98;100.00;96780.88;5067938;27;105939;-79
2022/05/07 06:52:54;;;;;;;16.97;15.37;;;;;;;13.05;100.00;96776.94;5051429;27;102293;-79
2022/05/07 06:55:22;;;;;;;17.40;15.80;;;;;;;13.20;100.00;96785.03;5051362;27;105335;-79
2022/05/07 06:57:48;;;;;;;17.87;16.17;;;;;;;13.22;100.00;96780.25;5069315;27;103135;-79
2022/05/07 07:00:16;;;;;;;18.40;16.70;;;;;;;13.18;100.00;96784.50;5071834;27;101961;-79
2022/05/07 07:02:45;;;;;;;18.20;16.50;;;;;;;13.31;100.00;96778.69;5050837;27;105393;-78
2022/05/07 07:05:12;;;;;;;18.17;16.37;;;;;;;13.39;100.00;96785.44;5051421;27;101977;-78
2022/05/07 07:07:39;;;;;;;17.10;15.53;;;;;;;13.40;100.00;96781.72;5050957;27;105220;-78
2022/05/07 07:10:07;;;;;;;16.30;14.70;;;;;;;13.35;100.00;96787.81;5050776;27;105655;-79
2022/05/07 07:12:42;;;;;;;17.53;15.93;;;;;;;13.44;100.00;96782.78;5070022;27;101796;-79
2022/05/07 07:15:10;;;;;;;15.97;14.47;;;;;;;13.47;100.00;96790.31;5051084;27;105263;-78
2022/05/07 07:17:37;;;;;;;15.90;14.50;;;;;;;13.49;100.00;96777.47;5050635;27;105562;-78
2022/05/07 07:20:10;;;;;;;16.50;15.00;;;;;;;13.42;100.00;96783.03;5050521;27;101968;-80
2022/05/07 07:22:37;;;;;;;15.83;14.40;;;;;;;13.39;100.00;96780.09;5053737;27;105423;-79
2022/05/07 07:25:07;;;;;;;15.90;14.37;;;;;;;13.47;100.00;96783.06;5051182;27;102216;-78
2022/05/07 07:27:35;;;;;;;15.90;14.47;;;;;;;13.45;100.00;96781.72;5050944;27;104058;-78
2022/05/07 07:30:02;;;;;;;15.77;14.27;;;;;;;13.49;100.00;96783.63;5050364;27;105291;-79
2022/05/07 07:32:29;;;;;;;15.80;14.30;;;;;;;13.45;100.00;96779.88;5051036;27;102048;-79
2022/05/07 07:34:56;;;;;;;15.70;14.30;;;;;;;13.46;100.00;96786.81;5050749;27;102913;-79
2022/05/07 07:37:25;;;;;;;15.33;13.93;;;;;;;13.34;100.00;96788.06;5050610;27;105228;-79
2022/05/07 07:39:52;;;;;;;14.87;13.47;;;;;;;13.34;100.00;96790.75;5050679;27;102014;-79
2022/05/07 07:42:23;;;;;;;15.93;14.50;;;;;;;13.40;100.00;96782.50;5050425;27;105247;-79
2022/05/07 07:47:56;;;;;;;16.07;14.60;;;;;;;13.33;100.00;96784.59;5053549;27;105379;-71
2022/05/07 07:50:21;;;;;;;15.13;13.77;;;;;;;13.46;100.00;96788.69;5050052;27;105384;-82
2022/05/07 07:52:53;;;;;;;15.07;13.67;;;;;;;13.53;100.00;96791.94;5052862;27;101836;-82
2022/05/07 07:55:20;;;;;;;15.50;14.00;;;;;;;13.52;100.00;96785.00;5054303;27;105619;-82
2022/05/07 07:57:47;;;;;;;16.27;14.77;;;;;;;13.46;100.00;96792.16;5053902;27;105001;-82
2022/05/07 08:00:15;;;;;;;15.80;14.40;;;;;;;13.48;100.00;96794.56;5054387;27;101960;-81
2022/05/07 08:02:47;;;;;;;14.63;13.33;;;;;;;13.46;100.00;96799.38;5054114;27;104917;-79
2022/05/07 08:05:15;;;;;;;17.90;16.27;;;;;;;13.44;100.00;96798.81;5053547;27;105418;-79
2022/05/07 08:13:12;;;;;;;19.20;17.50;;;;;;;13.51;100.00;96792.19;5053875;27;102259;-79
2022/05/07 08:15:39;;;;;;;19.03;17.33;;;;;;;13.56;100.00;96794.91;5053789;27;105466;-79
2022/05/07 08:18:07;;;;;;;20.83;18.83;;;;;;;13.19;100.00;96796.78;5053556;27;104158;-79
2022/05/07 08:20:34;;;;;;;21.40;19.40;;;;;;;13.35;100.00;96793.16;5053124;27;102142;-79
2022/05/07 08:23:01;;;;;;;20.13;18.23;;;;;;;13.22;100.00;96801.63;5072384;27;101845;-79
2022/05/07 08:25:30;;;;;;;21.20;19.20;;;;;;;13.39;100.00;96798.78;5053168;27;106021;-79
2022/05/07 08:27:57;;;;;;;21.47;19.40;;;;;;;13.25;100.00;96794.97;5053852;27;102030;-79
2022/05/07 08:30:24;;;;;;;21.57;19.37;;;;;;;13.34;100.00;96804.09;5075280;27;102587;-79
2022/05/07 08:32:51;;;;;;;22.37;20.27;;;;;;;13.40;100.00;96795.88;5072336;27;102338;-79
2022/05/07 08:35:19;;;;;;;22.00;19.87;;;;;;;13.48;100.00;96799.94;5071854;27;102815;-79
2022/05/07 08:37:46;;;;;;;20.40;18.40;;;;;;;13.62;100.00;96799.19;5053042;27;105292;-79
2022/05/07 08:40:16;;;;;;;21.93;19.83;;;;;;;13.68;100.00;96802.72;5053553;27;101936;-79
2022/05/07 08:42:45;;;;;;;23.27;20.97;;;;;;;13.82;100.00;96804.66;5053628;27;105194;-79
2022/05/07 08:45:13;;;;;;;21.70;19.57;;;;;;;13.78;100.00;96808.91;5053119;27;105645;-79
2022/05/07 08:47:41;;;;;;;20.20;18.27;;;;;;;13.54;100.00;96804.22;5053135;27;102438;-79
2022/05/07 08:50:10;;;;;;;20.43;18.53;;;;;;;13.71;100.00;96805.66;5053443;27;104894;-79
2022/05/07 08:52:41;;;;;;;21.87;19.67;;;;;;;13.63;100.00;96810.72;5073226;27;101883;-79
2022/05/07 08:55:11;;;;;;;19.57;17.67;;;;;;;13.50;100.00;96816.50;5053110;27;104741;-79
2022/05/07 08:57:38;;;;;;;18.43;16.70;;;;;;;13.35;100.00;96808.41;5052862;27;104263;-79
2022/05/07 09:00:10;;;;;;;19.13;17.23;;;;;;;13.35;100.00;96819.09;5053381;27;101877;-79
2022/05/07 09:02:42;;;;;;;18.53;16.80;;;;;;;13.47;100.00;96809.00;5070627;27;105227;-79
2022/05/07 09:05:11;;;;;;;19.70;17.80;;;;;;;13.53;100.00;96821.34;5051774;27;104550;-79
2022/05/07 09:07:39;;;;;;;18.33;16.53;;;;;;;13.63;100.00;96818.72;5053263;27;101940;-79
2022/05/07 09:10:11;;;;;;;17.20;15.40;;;;;;;13.55;100.00;96824.53;5053083;27;104916;-79
2022/05/07 09:12:39;;;;;;;17.17;15.43;;;;;;;13.55;100.00;96824.53;5056231;27;106583;-80
2022/05/07 09:15:08;;;;;;;17.47;15.53;;;;;;;13.58;100.00;96824.03;5053112;27;104883;-80
2022/05/07 09:17:37;;;;;;;16.53;14.93;;;;;;;13.62;100.00;96825.13;5051925;27;105409;-80
2022/05/07 09:20:15;;;;;;;17.70;15.90;;;;;;;13.46;100.00;96820.75;5051602;27;102418;-79
2022/05/07 09:22:53;;;;;;;18.27;16.40;;;;;;;13.60;100.00;96822.72;5053124;27;103798;-79
2022/05/07 09:25:22;;;;;;;20.07;18.03;;;;;;;13.85;100.00;96827.41;5052841;27;103954;-79
2022/05/07 09:27:51;;;;;;;21.37;19.23;;;;;;;13.89;100.00;96821.25;5052968;27;101990;-79
2022/05/07 09:30:30;;;;;;;20.47;18.37;;;;;;;13.87;100.00;96818.06;5052894;27;105072;-79
2022/05/07 09:32:58;;;;;;;20.73;18.63;;;;;;;13.93;100.00;96816.19;5052164;27;105605;-79
2022/05/07 09:38:12;;;;;;;20.67;18.57;;;;;;;13.93;100.00;96816.19;5052233;27;105487;-79
2022/05/07 09:40:40;;;;;;;20.33;18.30;;;;;;;13.83;100.00;96810.78;5070113;27;101956;-79
2022/05/07 09:43:10;;;;;;;20.70;18.60;;;;;;;13.91;100.00;96813.00;5059039;27;104744;-79
2022/05/07 09:45:42;;;;;;;20.87;18.77;;;;;;;13.81;100.00;96810.25;5032045;27;104437;-79
2022/05/07 09:48:12;;;;;;;20.40;18.40;;;;;;;13.83;100.00;96814.28;5043733;27;102299;-79
2022/05/07 09:50:53;;;;;;;20.90;18.80;;;;;;;13.93;100.00;96814.34;5052812;27;104800;-79
2022/05/07 09:58:52;;;;;;;21.73;19.63;;;;;;;13.88;100.00;96808.16;5037068;27;105007;-72
2022/05/07 10:01:57;;;;;;;22.40;20.10;;;;;;;13.78;100.00;96805.41;5052571;27;101865;-72
2022/05/07 10:04:54;;;;;;;22.20;19.97;;;;;;;13.83;100.00;96805.44;5021247;27;105401;-72
2022/05/07 10:07:41;;;;;;;23.30;20.90;;;;;;;13.74;100.00;96801.69;5051109;27;105008;-72
2022/05/07 10:10:22;;;;;;;23.67;21.27;;;;;;;13.70;100.00;96801.41;5051847;27;101999;-72
2022/05/07 10:12:50;;;;;;;25.00;20.77;;;;;;;13.40;100.00;96800.41;5052532;27;104952;-68
2022/05/07 10:15:25;;;;;;;24.33;21.77;;;;;;;13.50;100.00;96798.59;5069648;27;102733;-67
2022/05/07 10:18:02;;;;;;;24.27;21.87;;;;;;;13.54;100.00;96802.38;5070950;27;101863;-67
2022/05/07 10:21:10;;;;;;;23.73;21.40;;;;;;;13.59;100.00;96806.94;5061980;27;104783;-67
2022/05/07 10:23:38;;;;;;;25.70;23.03;;;;;;;13.76;100.00;96800.34;5011594;28;105554;-67
2022/05/07 10:26:05;;;;;;;26.17;23.57;;;;;;;14.00;100.00;96796.16;5011002;28;102730;-67
2022/05/07 10:28:41;;;;;;;23.23;20.93;;;;;;;14.06;100.00;96797.00;5010564;28;102900;-67
2022/05/07 10:31:27;;;;;;;23.67;21.37;;;;;;;14.43;100.00;96786.97;5009673;28;101840;-67
2022/05/07 10:33:55;;;;;;;21.93;19.83;;;;;;;14.82;100.00;96790.78;5010475;28;101870;-67
2022/05/07 10:36:35;;;;;;;21.33;19.23;;;;;;;14.77;100.00;96780.84;5013463;28;103990;-67
2022/05/07 10:39:07;;;;;;;19.33;17.43;;;;;;;14.32;100.00;96782.66;5028166;28;101868;-67
2022/05/07 10:41:57;;;;;;;19.47;17.60;;;;;;;14.39;100.00;96784.00;5021535;28;102382;-67
2022/05/07 10:47:54;;;;;;;18.97;17.17;;;;;;;14.68;100.00;96779.81;5028524;28;102085;-67
2022/05/07 10:50:26;;;;;;;20.50;18.60;;;;;;;14.77;100.00;96780.06;5007912;28;105058;-67
2022/05/07 10:52:57;;;;;;;19.07;17.23;;;;;;;14.76;100.00;96781.94;5009883;28;101928;-67
2022/05/07 10:55:26;;;;;;;16.33;14.93;;;;;;;14.84;100.00;96776.06;5011853;28;102489;-67
2022/05/07 10:57:53;;;;;;;16.00;14.50;;;;;;;14.92;100.00;96772.84;5027455;28;104417;-67
2022/05/07 11:00:22;;;;;;;18.00;16.30;;;;;;;14.98;100.00;96771.75;5010528;28;101949;-67
2022/05/07 11:02:51;;;;;;;15.73;14.30;;;;;;;15.13;100.00;96769.09;5008230;28;103871;-67
2022/05/07 11:05:18;;;;;;;16.27;14.67;;;;;;;15.34;100.00;96780.59;5023488;28;105407;-67
2022/05/07 11:07:47;;;;;;;15.33;13.93;;;;;;;15.62;100.00;96774.66;5011508;28;101945;-67
2022/05/07 11:10:14;;;;;;;15.07;13.67;;;;;;;15.81;100.00;96768.41;5040289;27;105725;-67
2022/05/07 11:12:41;;;;;;;14.90;13.60;;;;;;;15.91;100.00;96762.22;5008029;28;101838;-67
2022/05/07 11:15:08;;;;;;;14.50;13.20;;;;;;;15.82;100.00;96758.50;5008063;28;105026;-67
2022/05/07 11:17:40;;;;;;;12.93;11.73;;;;;;;15.91;100.00;96759.53;5028337;28;104330;-67
2022/05/07 11:20:08;;;;;;;14.27;12.90;;;;;;;15.76;100.00;96762.28;5026316;28;101939;-67
2022/05/07 11:22:39;;;;;;;10.20;9.40;;;;;;;15.78;100.00;96754.75;5054690;27;102515;-67
2022/05/07 11:25:10;;;;;;;7.73;7.13;;;;;;;15.59;100.00;96748.41;5035007;27;105904;-67
2022/05/07 11:27:37;;;;;;;7.63;6.90;;;;;;;15.56;100.00;96759.66;5072392;27;101836;-67
2022/05/07 11:30:10;;;;;;;7.13;6.47;;;;;;;15.54;100.00;96756.44;5057992;27;105966;-67
2022/05/07 11:32:39;;;;;;;7.87;7.27;;;;;;;15.57;100.00;96753.22;5074357;27;101720;-66
2022/05/07 11:35:07;;;;;;;8.27;7.57;;;;;;;15.37;100.00;96754.06;5074270;27;102398;-67
2022/05/07 11:37:42;;;;;;;8.17;7.57;;;;;;;15.45;100.00;96755.38;5053895;27;105868;-65
2022/05/07 11:40:12;;;;;;;8.67;7.87;;;;;;;15.30;100.00;96755.38;5073811;27;101866;-68
2022/05/07 11:42:47;;;;;;;8.43;7.83;;;;;;;15.28;100.00;96758.34;5055049;27;105202;-66
2022/05/07 11:45:57;;;;;;;9.00;8.30;;;;;;;15.35;100.00;96758.09;5054117;27;105937;-66
2022/05/07 11:48:25;;;;;;;9.43;8.63;;;;;;;15.54;100.00;96757.22;5055335;27;102049;-67